createdAt,value
2024-03-15T00:01:16.773Z,6.78
2024-03-15T00:03:45.323Z,6.85
2024-03-15T00:06:14.813Z,13.75
2024-03-15T00:08:44.209Z,9.68
2024-03-15T00:11:12.514Z,8.38
2024-03-15T00:13:40.731Z,5.93
2024-03-15T00:16:11.401Z,7.28
2024-03-15T00:18:41.105Z,6.95
2024-03-15T00:21:09.372Z,11.13
2024-03-15T00:23:38.180Z,9.48
2024-03-15T00:26:06.398Z,61.85
2024-03-15T00:28:34.565Z,125.75
2024-03-15T00:31:05.603Z,104.20
2024-03-15T00:33:33.784Z,62.27
2024-03-15T00:36:01.987Z,64.88
2024-03-15T00:38:30.178Z,54.33
2024-03-15T00:40:58.386Z,30.92
2024-03-15T00:43:27.486Z,22.20
2024-03-15T00:45:55.711Z,12.60
2024-03-15T00:48:24.020Z,9.90
2024-03-15T00:50:52.294Z,11.27
2024-03-15T00:53:20.445Z,8.02
2024-03-15T00:55:48.633Z,7.75
2024-03-15T00:58:19.351Z,8.82
2024-03-15T01:00:49.190Z,8.43
2024-03-15T01:03:19.973Z,7.55
2024-03-15T01:05:48.286Z,7.22
2024-03-15T01:08:16.493Z,6.78
2024-03-15T01:10:44.860Z,5.55
2024-03-15T01:13:13.126Z,8.18
2024-03-15T01:15:41.307Z,8.07
2024-03-15T01:18:09.593Z,7.38
2024-03-15T01:20:37.883Z,6.25
2024-03-15T01:23:06.256Z,5.70
2024-03-15T01:25:35.662Z,6.13
2024-03-15T01:28:04.101Z,5.72
2024-03-15T01:30:32.776Z,6.53
2024-03-15T01:33:01.039Z,5.15
2024-03-15T01:35:33.370Z,6.78
2024-03-15T01:38:02.441Z,5.38
2024-03-15T01:40:30.630Z,8.07
2024-03-15T01:42:58.816Z,8.02
2024-03-15T01:45:27.052Z,5.68
2024-03-15T01:47:55.301Z,5.57
2024-03-15T01:50:23.876Z,7.35
2024-03-15T01:52:52.608Z,5.50
2024-03-15T01:55:20.800Z,6.32
2024-03-15T01:57:49.075Z,5.80
2024-03-15T02:00:17.844Z,5.57
2024-03-15T02:02:46.136Z,7.93
2024-03-15T02:05:14.351Z,6.28
2024-03-15T02:07:42.551Z,6.00
2024-03-15T02:10:14.118Z,4.85
2024-03-15T02:12:42.467Z,6.70
2024-03-15T02:15:11.571Z,5.25
2024-03-15T02:17:43.410Z,7.53
2024-03-15T02:22:41.796Z,6.03
2024-03-15T02:25:11.244Z,6.05
2024-03-15T02:27:39.466Z,6.20
2024-03-15T02:30:08.415Z,6.47
2024-03-15T02:32:38.249Z,6.35
2024-03-15T02:35:15.519Z,5.50
2024-03-15T02:37:54.826Z,6.60
2024-03-15T02:40:23.107Z,5.63
2024-03-15T02:42:51.470Z,7.93
2024-03-15T02:45:20.286Z,7.45
2024-03-15T02:47:48.582Z,6.60
2024-03-15T02:50:16.892Z,6.18
2024-03-15T02:52:49.350Z,7.72
2024-03-15T02:55:18.135Z,5.70
2024-03-15T02:57:47.048Z,6.28
2024-03-15T03:00:16.200Z,6.97
2024-03-15T03:02:44.559Z,7.90
2024-03-15T03:05:13.455Z,6.65
2024-03-15T03:07:41.825Z,6.13
2024-03-15T03:10:10.136Z,7.18
2024-03-15T03:12:38.516Z,6.60
2024-03-15T03:15:07.746Z,7.38
2024-03-15T03:17:36.030Z,6.53
2024-03-15T03:20:12.545Z,9.52
2024-03-15T03:22:40.959Z,6.50
2024-03-15T03:25:11.090Z,6.63
2024-03-15T03:27:39.392Z,6.68
2024-03-15T03:30:08.277Z,7.55
2024-03-15T03:32:37.347Z,7.93
2024-03-15T03:35:06.377Z,6.72
2024-03-15T03:37:34.632Z,7.95
2024-03-15T03:40:06.738Z,8.77
2024-03-15T03:42:35.050Z,7.22
2024-03-15T03:45:07.145Z,7.75
2024-03-15T03:47:35.417Z,8.02
2024-03-15T03:50:03.856Z,7.93
2024-03-15T03:52:32.045Z,7.85
2024-03-15T03:55:00.269Z,6.55
2024-03-15T03:57:39.062Z,7.88
2024-03-15T04:00:15.705Z,6.65
2024-03-15T04:02:46.249Z,8.73
2024-03-15T04:05:15.440Z,8.50
2024-03-15T04:07:45.812Z,7.78
2024-03-15T04:10:14.503Z,8.60
2024-03-15T04:12:43.986Z,8.45
2024-03-15T04:15:24.613Z,7.53
2024-03-15T04:17:59.149Z,8.73
2024-03-15T04:20:28.383Z,7.40
2024-03-15T04:22:58.094Z,9.05
2024-03-15T04:25:27.459Z,9.50
2024-03-15T04:27:56.709Z,6.63
2024-03-15T04:30:25.487Z,9.57
2024-03-15T04:32:57.058Z,10.32
2024-03-15T04:37:57.127Z,7.47
2024-03-15T04:40:27.324Z,9.13
2024-03-15T04:42:58.026Z,6.60
2024-03-15T04:45:26.706Z,7.00
2024-03-15T04:47:55.689Z,8.10
2024-03-15T04:50:24.192Z,12.48
2024-03-15T04:52:54.226Z,10.18
2024-03-15T04:55:23.038Z,7.57
2024-03-15T04:57:51.827Z,8.93
2024-03-15T05:00:22.149Z,7.40
2024-03-15T05:02:52.296Z,8.13
2024-03-15T05:05:22.937Z,7.28
2024-03-15T05:07:51.715Z,11.80
2024-03-15T05:10:20.218Z,9.07
2024-03-15T05:12:49.410Z,9.73
2024-03-15T05:15:17.983Z,8.88
2024-03-15T05:17:48.014Z,10.27
2024-03-15T05:20:16.816Z,8.32
2024-03-15T05:22:46.822Z,26.98
2024-03-15T05:25:17.357Z,11.48
2024-03-15T05:27:47.155Z,12.80
2024-03-15T05:30:18.711Z,8.40
2024-03-15T05:32:49.961Z,8.55
2024-03-15T05:35:22.099Z,9.95
2024-03-15T05:37:50.626Z,10.77
2024-03-15T05:40:19.306Z,10.50
2024-03-15T05:42:49.184Z,8.48
2024-03-15T05:45:18.956Z,9.50
2024-03-15T05:47:48.165Z,10.00
2024-03-15T05:50:16.449Z,9.90
2024-03-15T05:52:45.068Z,7.55
2024-03-15T05:55:14.586Z,8.35
2024-03-15T05:57:42.955Z,8.88
2024-03-15T06:00:16.621Z,10.02
2024-03-15T06:02:46.055Z,8.02
2024-03-15T06:05:14.449Z,7.85
2024-03-15T06:07:43.104Z,11.43
2024-03-15T06:10:11.277Z,9.63
2024-03-15T06:12:39.631Z,19.65
2024-03-15T06:15:09.069Z,39.03
2024-03-15T06:17:38.174Z,98.63
2024-03-15T06:20:11.042Z,58.53
2024-03-15T06:22:39.508Z,39.85
2024-03-15T06:25:08.162Z,45.63
2024-03-15T06:27:36.906Z,83.10
2024-03-15T06:30:05.528Z,46.65
2024-03-15T06:32:37.819Z,47.80
2024-03-15T06:35:19.684Z,38.88
2024-03-15T06:37:49.742Z,21.08
2024-03-15T06:40:21.821Z,12.45
2024-03-15T06:43:10.905Z,10.85
2024-03-15T06:45:53.688Z,9.75
2024-03-15T06:48:24.146Z,10.32
2024-03-15T06:51:01.876Z,8.40
2024-03-15T06:53:29.322Z,9.52
2024-03-15T06:55:58.722Z,10.00
2024-03-15T06:58:27.181Z,8.77
2024-03-15T07:00:55.629Z,8.48
2024-03-15T07:03:23.974Z,9.02
2024-03-15T07:05:52.443Z,8.02
2024-03-15T07:08:20.661Z,9.68
2024-03-15T07:10:48.859Z,8.95
2024-03-15T07:13:17.170Z,8.90
2024-03-15T07:15:48.123Z,9.60
2024-03-15T07:18:16.467Z,12.30
2024-03-15T07:20:44.687Z,8.40
2024-03-15T07:23:13.226Z,10.48
2024-03-15T07:25:41.458Z,8.50
2024-03-15T07:28:10.366Z,9.77
2024-03-15T07:30:40.460Z,8.50
2024-03-15T07:33:09.395Z,11.63
2024-03-15T07:35:37.823Z,11.13
2024-03-15T07:38:07.194Z,8.65
2024-03-15T07:40:36.589Z,8.95
2024-03-15T07:43:05.067Z,8.63
2024-03-15T07:45:33.399Z,7.57
2024-03-15T07:48:01.775Z,7.95
2024-03-15T07:50:30.126Z,10.52
2024-03-15T07:52:58.560Z,8.20
2024-03-15T07:55:26.844Z,9.85
2024-03-15T07:57:55.090Z,10.20
2024-03-15T08:00:23.378Z,8.63
2024-03-15T08:02:51.558Z,10.23
2024-03-15T08:05:23.866Z,7.57
2024-03-15T08:07:52.113Z,10.27
2024-03-15T08:10:22.074Z,7.65
2024-03-15T08:12:50.527Z,9.00
2024-03-15T08:15:19.025Z,10.10
2024-03-15T08:17:51.388Z,19.20
2024-03-15T08:20:19.970Z,12.30
2024-03-15T08:22:48.199Z,16.08
2024-03-15T08:25:16.524Z,10.18
2024-03-15T08:27:49.800Z,10.43
2024-03-15T08:30:19.502Z,12.00
2024-03-15T08:32:47.995Z,11.35
2024-03-15T08:35:17.782Z,10.55
2024-03-15T08:37:46.106Z,11.05
2024-03-15T08:40:15.642Z,9.55
2024-03-15T08:42:46.742Z,38.22
2024-03-15T08:45:16.190Z,116.78
2024-03-15T08:47:55.094Z,103.63
2024-03-15T08:50:33.978Z,47.13
2024-03-15T08:53:04.531Z,39.75
2024-03-15T08:55:33.026Z,24.85
2024-03-15T08:58:01.511Z,18.85
2024-03-15T09:00:29.801Z,15.13
2024-03-15T09:02:57.975Z,19.85
2024-03-15T09:05:26.205Z,18.75
2024-03-15T09:07:54.525Z,17.85
2024-03-15T09:10:24.598Z,19.75
2024-03-15T09:12:53.092Z,15.93
2024-03-15T09:15:23.445Z,10.68
2024-03-15T09:17:52.577Z,13.77
2024-03-15T09:20:28.996Z,12.68
2024-03-15T09:22:57.713Z,9.13
2024-03-15T09:25:28.100Z,17.42
2024-03-15T09:27:56.729Z,16.52
2024-03-15T09:30:30.561Z,15.20
2024-03-15T09:32:59.639Z,9.70
2024-03-15T09:35:28.106Z,8.90
2024-03-15T09:37:56.328Z,9.38
2024-03-15T09:40:26.413Z,8.98
2024-03-15T09:42:55.581Z,10.50
2024-03-15T09:45:25.314Z,10.68
2024-03-15T09:47:53.872Z,8.38
2024-03-15T09:50:23.186Z,10.10
2024-03-15T09:52:52.175Z,7.72
2024-03-15T09:55:21.381Z,7.55
2024-03-15T09:57:51.130Z,9.07
2024-03-15T10:00:24.318Z,6.90
2024-03-15T10:02:54.286Z,8.02
2024-03-15T10:05:23.075Z,8.90
2024-03-15T10:07:51.339Z,7.80
2024-03-15T10:10:19.520Z,8.73
2024-03-15T10:12:48.031Z,6.68
2024-03-15T10:15:16.445Z,14.43
2024-03-15T10:17:45.287Z,9.98
2024-03-15T10:20:15.257Z,6.00
2024-03-15T10:22:43.664Z,9.27
2024-03-15T10:25:16.600Z,12.50
2024-03-15T10:27:45.337Z,13.05
2024-03-15T10:30:16.358Z,20.90
2024-03-15T10:32:47.798Z,51.88
2024-03-15T10:35:17.231Z,26.95
2024-03-15T10:37:45.558Z,15.85
2024-03-15T10:40:14.699Z,18.55
2024-03-15T10:42:43.598Z,10.95
2024-03-15T10:45:13.773Z,23.05
2024-03-15T10:47:42.224Z,19.30
2024-03-15T10:50:12.484Z,9.75
2024-03-15T10:52:41.957Z,15.93
2024-03-15T10:55:15.350Z,9.20
2024-03-15T10:57:43.727Z,8.57
2024-03-15T11:00:18.916Z,9.68
2024-03-15T11:02:47.304Z,16.30
2024-03-15T11:05:17.412Z,17.10
2024-03-15T11:07:45.690Z,19.88
2024-03-15T11:10:15.755Z,27.92
2024-03-15T11:12:44.239Z,18.60
2024-03-15T11:15:15.700Z,26.50
2024-03-15T11:17:44.023Z,17.85
2024-03-15T11:20:14.186Z,28.95
2024-03-15T11:22:42.526Z,12.95
2024-03-15T11:25:18.577Z,10.63
2024-03-15T11:27:58.032Z,12.15
2024-03-15T11:30:28.980Z,9.65
2024-03-15T11:32:56.892Z,8.70
2024-03-15T11:35:25.248Z,7.13
2024-03-15T11:37:56.820Z,6.20
2024-03-15T11:40:27.256Z,8.30
2024-03-15T11:43:05.311Z,6.40
2024-03-15T11:45:38.050Z,7.28
2024-03-15T11:48:13.710Z,11.65
2024-03-15T11:50:43.916Z,7.13
2024-03-15T11:53:13.874Z,9.50
2024-03-15T11:55:42.191Z,7.85
2024-03-15T11:58:13.693Z,14.43
2024-03-15T12:00:42.090Z,9.68
2024-03-15T12:03:11.246Z,7.72
2024-03-15T12:05:41.958Z,10.55
2024-03-15T12:08:12.377Z,10.57
2024-03-15T12:10:40.676Z,11.60
2024-03-15T12:13:16.542Z,10.57
2024-03-15T12:15:45.121Z,11.55
2024-03-15T12:18:14.353Z,9.88
2024-03-15T12:20:43.048Z,11.60
2024-03-15T12:23:12.634Z,11.95
2024-03-15T12:25:40.888Z,13.02
2024-03-15T12:28:09.614Z,13.85
2024-03-15T12:30:37.934Z,9.18
2024-03-15T12:33:06.478Z,6.97
2024-03-15T12:35:37.711Z,12.65
2024-03-15T12:38:07.175Z,16.30
2024-03-15T12:40:35.992Z,21.40
2024-03-15T12:43:04.767Z,16.52
2024-03-15T12:45:33.056Z,20.98
2024-03-15T12:48:01.472Z,13.15
2024-03-15T12:50:30.454Z,22.65
2024-03-15T12:53:00.624Z,91.53
2024-03-15T12:55:29.058Z,57.22
2024-03-15T12:57:57.497Z,63.78
2024-03-15T13:00:30.324Z,62.70
2024-03-15T13:02:59.199Z,90.10
2024-03-15T13:05:27.901Z,56.53
2024-03-15T13:07:56.206Z,69.03
2024-03-15T13:10:24.656Z,33.15
2024-03-15T13:12:53.680Z,14.27
2024-03-15T13:15:22.458Z,25.85
2024-03-15T13:17:53.498Z,30.23
2024-03-15T13:20:23.423Z,20.52
2024-03-15T13:22:54.444Z,7.32
2024-03-15T13:25:33.624Z,18.77
2024-03-15T13:28:07.548Z,24.98
2024-03-15T13:30:38.840Z,19.38
2024-03-15T13:33:09.719Z,8.88
2024-03-15T13:35:38.919Z,12.30
2024-03-15T13:38:08.220Z,22.48
2024-03-15T13:40:37.768Z,23.17
2024-03-15T13:43:06.616Z,29.17
2024-03-15T13:45:34.903Z,20.90
2024-03-15T13:48:28.006Z,17.17
2024-03-15T13:50:56.261Z,13.25
2024-03-15T13:53:24.448Z,15.90
2024-03-15T13:55:52.599Z,11.43
2024-03-15T13:58:20.762Z,9.43
2024-03-15T14:00:50.958Z,6.65
2024-03-15T14:03:20.062Z,9.30
2024-03-15T14:05:48.458Z,10.85
2024-03-15T14:08:19.220Z,12.45
2024-03-15T14:10:47.671Z,14.45
2024-03-15T14:13:19.348Z,10.35
2024-03-15T14:15:48.501Z,12.77
2024-03-15T14:18:17.208Z,18.05
2024-03-15T14:20:46.623Z,13.85
2024-03-15T14:23:15.082Z,7.80
2024-03-15T14:25:44.063Z,6.07
2024-03-15T14:28:12.252Z,4.82
2024-03-15T14:30:40.549Z,6.93
2024-03-15T14:33:09.875Z,67.22
2024-03-15T14:35:39.610Z,87.03
2024-03-15T14:38:10.132Z,60.53
2024-03-15T14:40:40.240Z,37.75
2024-03-15T14:43:12.104Z,29.13
2024-03-15T14:45:41.267Z,19.95
2024-03-15T14:48:14.747Z,31.38
2024-03-15T14:50:44.909Z,35.10
2024-03-15T14:53:16.259Z,41.60
2024-03-15T14:55:46.626Z,20.30
2024-03-15T14:58:15.747Z,8.73
2024-03-15T15:00:45.354Z,5.20
2024-03-15T15:03:14.118Z,5.55
2024-03-15T15:05:42.423Z,4.32
2024-03-15T15:08:11.986Z,4.82
2024-03-15T15:10:41.261Z,4.82
2024-03-15T15:13:11.686Z,4.43
2024-03-15T15:15:42.228Z,4.47
2024-03-15T15:18:12.181Z,15.50
2024-03-15T15:20:42.795Z,11.90
2024-03-15T15:23:11.293Z,14.15
2024-03-15T15:25:41.128Z,8.50
2024-03-15T15:28:09.777Z,12.45
2024-03-15T15:30:38.471Z,12.93
2024-03-15T15:33:09.260Z,7.25
2024-03-15T15:35:38.720Z,4.13
2024-03-15T15:38:08.659Z,3.75
2024-03-15T15:40:38.642Z,3.28
2024-03-15T15:43:07.698Z,1.15
2024-03-15T15:45:36.312Z,2.55
2024-03-15T15:48:06.839Z,1.77
2024-03-15T15:50:36.659Z,3.72
2024-03-15T15:53:06.472Z,2.00
2024-03-15T15:55:36.209Z,1.40
2024-03-15T15:58:05.655Z,1.88
2024-03-15T16:00:34.512Z,2.05
2024-03-15T16:03:04.998Z,2.17
2024-03-15T16:05:36.914Z,2.03
2024-03-15T16:10:35.369Z,4.15
2024-03-15T16:13:03.841Z,3.45
2024-03-15T16:15:32.204Z,2.42
2024-03-15T16:18:00.951Z,1.70
2024-03-15T16:20:29.777Z,2.42
2024-03-15T16:22:58.741Z,3.60
2024-03-15T16:25:27.031Z,2.40
2024-03-15T16:27:55.347Z,3.20
2024-03-15T16:30:23.764Z,3.53
2024-03-15T16:33:00.490Z,2.95
2024-03-15T16:35:31.327Z,4.45
2024-03-15T16:37:59.511Z,3.38
2024-03-15T16:40:28.712Z,5.45
2024-03-15T16:42:58.684Z,3.38
2024-03-15T16:45:27.120Z,2.55
2024-03-15T16:47:55.625Z,4.57
2024-03-15T16:50:26.129Z,2.88
2024-03-15T16:52:54.443Z,4.60
2024-03-15T16:55:22.947Z,3.97
2024-03-15T16:57:51.287Z,3.00
2024-03-15T17:00:22.111Z,3.15
2024-03-15T17:02:50.527Z,3.03
2024-03-15T17:05:19.483Z,3.63
2024-03-15T17:07:49.821Z,3.50
2024-03-15T17:10:18.272Z,2.35
2024-03-15T17:12:46.983Z,2.83
2024-03-15T17:15:15.571Z,3.70
2024-03-15T17:17:44.654Z,4.00
2024-03-15T17:20:12.955Z,3.95
2024-03-15T17:22:41.125Z,4.00
2024-03-15T17:25:10.190Z,2.80
2024-03-15T17:27:38.498Z,2.35
2024-03-15T17:30:08.117Z,5.53
2024-03-15T17:32:37.024Z,4.25
2024-03-15T17:35:05.689Z,5.15
2024-03-15T17:37:33.969Z,6.57
2024-03-15T17:40:02.446Z,5.20
2024-03-15T17:42:31.942Z,6.40
2024-03-15T17:45:00.210Z,8.18
2024-03-15T17:47:28.493Z,5.70
2024-03-15T17:49:57.027Z,5.93
2024-03-15T17:52:26.075Z,4.53
2024-03-15T17:54:54.439Z,3.67
2024-03-15T17:57:22.857Z,2.90
2024-03-15T17:59:51.311Z,2.92
2024-03-15T18:02:19.504Z,3.50
2024-03-15T18:04:47.776Z,3.55
2024-03-15T18:07:16.206Z,3.15
2024-03-15T18:09:44.406Z,4.50
2024-03-15T18:12:13.048Z,4.00
2024-03-15T18:14:41.233Z,4.35
2024-03-15T18:17:09.417Z,6.57
2024-03-15T18:19:37.619Z,7.45
2024-03-15T18:22:05.923Z,4.18
2024-03-15T18:24:34.079Z,4.95
2024-03-15T18:27:02.825Z,3.95
2024-03-15T18:29:31.034Z,3.75
2024-03-15T18:31:59.247Z,2.53
2024-03-15T18:34:27.557Z,4.63
2024-03-15T18:36:55.797Z,3.63
2024-03-15T18:39:26.670Z,4.90
2024-03-15T18:41:54.985Z,4.03
2024-03-15T18:44:23.151Z,5.80
2024-03-15T18:46:51.387Z,15.85
2024-03-15T18:49:20.228Z,17.23
2024-03-15T18:51:48.493Z,7.15
2024-03-15T18:54:16.811Z,7.63
2024-03-15T18:56:49.752Z,8.40
2024-03-15T18:59:27.407Z,3.55
2024-03-15T19:01:55.679Z,3.55
2024-03-15T19:04:23.945Z,4.05
2024-03-15T19:06:52.133Z,4.45
2024-03-15T19:09:21.411Z,5.53
2024-03-15T19:11:50.853Z,6.03
2024-03-15T19:14:19.442Z,3.85
2024-03-15T19:16:47.688Z,2.15
2024-03-15T19:19:15.930Z,3.00
2024-03-15T19:21:45.470Z,1.60
2024-03-15T19:24:13.687Z,1.83
2024-03-15T19:26:41.905Z,1.42
2024-03-15T19:29:10.076Z,2.70
2024-03-15T19:31:38.358Z,3.33
2024-03-15T19:34:06.692Z,3.38
2024-03-15T19:36:34.993Z,1.83
2024-03-15T19:39:03.678Z,1.25
2024-03-15T19:41:31.880Z,1.55
2024-03-15T19:44:00.747Z,3.83
2024-03-15T19:46:29.122Z,6.30
2024-03-15T19:48:58.608Z,12.77
2024-03-15T19:51:26.851Z,8.38
2024-03-15T19:53:55.806Z,4.05
2024-03-15T19:56:24.055Z,6.70
2024-03-15T19:58:52.290Z,3.15
2024-03-15T20:01:20.626Z,3.38
2024-03-15T20:03:49.114Z,9.75
2024-03-15T20:06:18.391Z,6.35
2024-03-15T20:08:46.751Z,4.18
2024-03-15T20:11:15.824Z,4.80
2024-03-15T20:13:44.165Z,3.55
2024-03-15T20:16:13.318Z,2.45
2024-03-15T20:18:42.476Z,1.85
2024-03-15T20:21:10.683Z,2.15
2024-03-15T20:23:39.353Z,2.75
2024-03-15T20:26:07.570Z,1.85
2024-03-15T20:28:37.695Z,2.13
2024-03-15T20:31:05.951Z,2.08
2024-03-15T20:33:34.337Z,1.27
2024-03-15T20:36:02.584Z,1.58
2024-03-15T20:38:30.732Z,1.15
2024-03-15T20:40:59.041Z,18.55
2024-03-15T20:43:27.242Z,23.58
2024-03-15T20:45:55.483Z,30.25
2024-03-15T20:48:23.728Z,13.45
2024-03-15T20:50:55.489Z,3.63
2024-03-15T20:53:24.525Z,2.50
2024-03-15T20:55:53.720Z,2.25
2024-03-15T20:58:23.411Z,2.72
2024-03-15T21:00:51.667Z,3.10
2024-03-15T21:03:20.053Z,1.80
2024-03-15T21:05:48.241Z,5.03
2024-03-15T21:08:16.446Z,1.85
2024-03-15T21:10:44.655Z,3.63
2024-03-15T21:13:12.916Z,13.57
2024-03-15T21:15:41.179Z,7.50
2024-03-15T21:18:10.288Z,8.02
2024-03-15T21:20:38.556Z,8.60
2024-03-15T21:23:07.220Z,8.85
2024-03-15T21:25:35.426Z,8.82
2024-03-15T21:28:05.536Z,10.48
2024-03-15T21:30:33.884Z,10.52
2024-03-15T21:33:02.111Z,29.80
2024-03-15T21:35:30.368Z,23.48
2024-03-15T21:38:00.274Z,11.07
2024-03-15T21:40:29.580Z,9.52
2024-03-15T21:43:01.634Z,6.47
2024-03-15T21:45:30.150Z,2.97
2024-03-15T21:48:00.310Z,4.25
2024-03-15T21:50:28.757Z,9.30
2024-03-15T21:52:56.977Z,10.07
2024-03-15T21:55:25.171Z,7.80
2024-03-15T21:57:53.423Z,8.73
2024-03-15T22:00:27.624Z,2.90
2024-03-15T22:02:56.938Z,1.88
2024-03-15T22:05:25.177Z,2.30
2024-03-15T22:07:54.120Z,5.35
2024-03-15T22:10:22.949Z,6.55
2024-03-15T22:12:51.812Z,4.15
2024-03-15T22:15:21.804Z,3.90
2024-03-15T22:17:50.161Z,4.95
2024-03-15T22:20:18.386Z,3.80
2024-03-15T22:22:46.547Z,11.02
2024-03-15T22:25:25.032Z,11.10
2024-03-15T22:27:56.576Z,11.05
2024-03-15T22:30:25.248Z,22.33
2024-03-15T22:32:53.832Z,7.60
2024-03-15T22:35:22.337Z,13.27
2024-03-15T22:37:50.561Z,43.80
2024-03-15T22:40:19.359Z,37.65
2024-03-15T22:42:47.979Z,14.57
2024-03-15T22:45:16.462Z,7.50
2024-03-15T22:47:44.670Z,3.08
2024-03-15T22:50:13.422Z,3.15
2024-03-15T22:52:44.757Z,1.85
2024-03-15T22:55:12.990Z,1.85
2024-03-15T22:57:41.512Z,1.73
2024-03-15T23:00:17.445Z,2.85
2024-03-15T23:02:46.384Z,3.63
2024-03-15T23:05:14.710Z,2.70
2024-03-15T23:07:43.989Z,2.42
2024-03-15T23:10:14.965Z,4.18
2024-03-15T23:12:43.584Z,3.78
2024-03-15T23:15:14.191Z,2.60
2024-03-15T23:17:42.578Z,1.80
2024-03-15T23:20:13.623Z,2.53
2024-03-15T23:22:45.142Z,3.38
2024-03-15T23:25:14.453Z,2.80
2024-03-15T23:27:42.802Z,2.47
2024-03-15T23:30:11.739Z,4.95
2024-03-15T23:32:40.370Z,4.43
2024-03-15T23:35:12.500Z,15.57
2024-03-15T23:37:41.927Z,29.33
2024-03-15T23:40:10.845Z,40.30
2024-03-15T23:42:39.168Z,76.40
2024-03-15T23:45:07.840Z,49.42
2024-03-15T23:47:36.120Z,23.75
2024-03-15T23:50:04.476Z,17.75
2024-03-15T23:52:33.170Z,11.75
2024-03-15T23:55:07.525Z,26.92
2024-03-15T23:57:36.696Z,15.48
